createdAt,value
2023-02-14T00:04:48.706Z,101851.40
2023-02-14T00:09:51.752Z,101855.80
2023-02-14T00:15:13.405Z,101860.00
2023-02-14T00:20:16.676Z,101865.80
2023-02-14T00:25:20.023Z,101870.20
2023-02-14T00:30:23.562Z,101879.80
2023-02-14T00:35:26.539Z,101885.00
2023-02-14T00:41:27.168Z,101885.80
2023-02-14T00:46:30.288Z,101874.00
2023-02-14T00:51:33.314Z,101875.20
2023-02-14T00:56:36.408Z,101889.20
2023-02-14T01:01:40.143Z,101886.60
2023-02-14T01:06:45.008Z,101901.80
2023-02-14T01:11:48.951Z,101896.40
2023-02-14T01:16:52.022Z,101900.20
2023-02-14T01:21:55.191Z,101900.20
2023-02-14T01:26:58.232Z,101912.40
2023-02-14T01:32:01.613Z,101903.20
2023-02-14T01:37:04.551Z,101907.60
2023-02-14T01:42:07.605Z,101896.40
2023-02-14T01:47:11.795Z,101898.00
2023-02-14T01:52:28.638Z,101895.40
2023-02-14T01:58:03.406Z,101883.20
2023-02-14T02:03:08.453Z,101886.00
2023-02-14T02:08:12.317Z,101887.40
2023-02-14T02:13:20.156Z,101899.60
2023-02-14T02:18:41.201Z,101897.40
2023-02-14T02:24:14.237Z,101903.20
2023-02-14T02:30:02.439Z,101894.40
2023-02-14T02:35:45.488Z,101900.00
2023-02-14T02:41:46.944Z,101900.60
2023-02-14T02:47:22.190Z,101914.80
2023-02-14T02:53:03.131Z,101909.80
2023-02-14T02:58:06.243Z,101916.80
2023-02-14T03:03:29.456Z,101922.00
2023-02-14T03:08:32.379Z,101928.40
2023-02-14T03:13:53.748Z,101924.80
2023-02-14T03:19:54.210Z,101934.20
2023-02-14T03:25:22.818Z,101932.80
2023-02-14T03:30:45.489Z,101930.00
2023-02-14T03:36:14.845Z,101927.00
2023-02-14T03:41:33.038Z,101915.40
2023-02-14T03:47:06.103Z,101932.20
2023-02-14T03:52:12.464Z,101920.80
2023-02-14T03:57:29.969Z,101931.80
2023-02-14T04:02:43.621Z,101927.40
2023-02-14T04:07:50.890Z,101928.80
2023-02-14T04:12:54.389Z,101932.80
2023-02-14T04:18:16.072Z,101932.80
2023-02-14T04:23:19.035Z,101939.60
2023-02-14T04:28:21.998Z,101937.40
2023-02-14T04:33:24.917Z,101942.40
2023-02-14T04:38:28.570Z,101941.80
2023-02-14T04:43:31.540Z,101950.20
2023-02-14T04:48:34.412Z,101945.60
2023-02-14T04:53:40.497Z,101951.60
2023-02-14T04:58:43.578Z,101963.80
2023-02-14T05:03:46.554Z,101956.40
2023-02-14T05:08:49.548Z,101975.40
2023-02-14T05:13:52.562Z,101965.60
2023-02-14T05:18:55.583Z,101962.60
2023-02-14T05:23:59.711Z,101960.60
2023-02-14T05:29:02.735Z,101966.60
2023-02-14T05:34:05.801Z,101977.60
2023-02-14T05:39:08.888Z,101977.40
2023-02-14T05:44:11.877Z,101989.20
2023-02-14T05:49:14.994Z,101988.40
2023-02-14T05:54:27.099Z,101993.00
2023-02-14T05:59:31.234Z,101994.60
2023-02-14T06:04:34.325Z,102003.60
2023-02-14T06:09:37.417Z,102015.00
2023-02-14T06:14:42.991Z,102010.00
2023-02-14T06:19:46.123Z,102008.80
2023-02-14T06:24:49.062Z,102021.40
2023-02-14T06:29:52.068Z,102026.60
2023-02-14T06:34:55.083Z,102039.20
2023-02-14T06:39:58.322Z,102036.60
2023-02-14T06:45:02.668Z,102043.00
2023-02-14T06:50:07.242Z,102058.80
2023-02-14T06:55:13.305Z,102057.60
2023-02-14T07:00:16.855Z,102068.60
2023-02-14T07:05:20.028Z,102057.40
2023-02-14T07:10:23.232Z,102069.00
2023-02-14T07:15:26.790Z,102076.20
2023-02-14T07:20:29.996Z,102077.20
2023-02-14T07:25:33.184Z,102087.00
2023-02-14T07:30:36.497Z,102089.20
2023-02-14T07:35:39.580Z,102098.20
2023-02-14T07:40:42.580Z,102091.00
2023-02-14T07:45:45.480Z,102109.60
2023-02-14T07:50:48.830Z,102100.00
2023-02-14T07:55:52.812Z,102103.00
2023-02-14T08:00:55.804Z,102096.60
2023-02-14T08:05:58.740Z,102103.60
2023-02-14T08:11:02.438Z,102105.40
2023-02-14T08:16:06.007Z,102110.00
2023-02-14T08:21:11.394Z,102102.80
2023-02-14T08:26:14.630Z,102104.00
2023-02-14T08:31:35.714Z,102111.20
2023-02-14T08:36:39.887Z,102111.40
2023-02-14T08:41:42.769Z,102115.40
2023-02-14T08:46:45.687Z,102120.20
2023-02-14T08:51:48.706Z,102122.20
2023-02-14T08:56:51.735Z,102127.00
2023-02-14T09:01:54.675Z,102134.40
2023-02-14T09:06:57.704Z,102132.60
2023-02-14T09:12:06.280Z,102125.80
2023-02-14T09:17:10.626Z,102126.20
2023-02-14T09:22:13.693Z,102130.00
2023-02-14T09:27:16.771Z,102131.40
2023-02-14T09:32:20.166Z,102137.00
2023-02-14T09:37:23.216Z,102127.60
2023-02-14T09:42:47.556Z,102140.00
2023-02-14T09:48:46.448Z,102135.00
2023-02-14T09:53:57.097Z,102137.20
2023-02-14T09:59:25.493Z,102141.40
2023-02-14T10:04:56.535Z,102147.80
2023-02-14T10:10:39.852Z,102150.20
2023-02-14T10:15:56.873Z,102155.80
2023-02-14T10:21:03.340Z,102137.60
2023-02-14T10:26:31.638Z,102140.60
2023-02-14T10:32:23.054Z,102132.40
2023-02-14T10:38:17.508Z,102132.80
2023-02-14T10:43:58.447Z,102130.80
2023-02-14T10:49:32.894Z,102130.80
2023-02-14T10:54:42.472Z,102128.40
2023-02-14T11:00:11.247Z,102132.60
2023-02-14T11:05:31.285Z,102138.00
2023-02-14T11:10:35.781Z,102133.00
2023-02-14T11:15:40.616Z,102126.80
2023-02-14T11:20:43.868Z,102125.20
2023-02-14T11:25:55.626Z,102124.60
2023-02-14T11:30:59.447Z,102117.60
2023-02-14T11:36:06.273Z,102129.20
2023-02-14T11:41:13.844Z,102127.80
2023-02-14T11:46:28.261Z,102122.60
2023-02-14T11:51:41.887Z,102115.40
2023-02-14T11:57:02.087Z,102124.80
2023-02-14T12:02:37.625Z,102115.20
2023-02-14T12:07:45.566Z,102116.40
2023-02-14T12:13:01.973Z,102111.40
2023-02-14T12:18:34.614Z,102107.00
2023-02-14T12:23:47.136Z,102102.00
2023-02-14T12:29:04.361Z,102103.60
2023-02-14T12:34:10.680Z,102102.40
2023-02-14T12:39:51.951Z,102097.00
2023-02-14T12:45:13.099Z,102092.00
2023-02-14T12:50:31.780Z,102085.20
2023-02-14T12:56:03.484Z,102089.80
2023-02-14T13:01:21.793Z,102091.20
2023-02-14T13:06:38.625Z,102086.80
2023-02-14T13:11:47.261Z,102086.20
2023-02-14T13:17:38.737Z,102088.60
2023-02-14T13:22:43.306Z,102087.00
2023-02-14T13:27:46.340Z,102085.00
2023-02-14T13:32:53.583Z,102074.80
2023-02-14T13:38:05.251Z,102078.40
2023-02-14T13:43:08.148Z,102076.00
2023-02-14T13:48:19.885Z,102068.80
2023-02-14T13:53:42.033Z,102069.60
2023-02-14T13:59:03.243Z,102062.80
2023-02-14T14:04:26.140Z,102067.60
2023-02-14T14:09:44.383Z,102074.80
2023-02-14T14:15:08.345Z,102068.60
2023-02-14T14:20:18.935Z,102069.00
2023-02-14T14:25:33.513Z,102070.20
2023-02-14T14:30:37.785Z,102070.20
2023-02-14T14:36:02.586Z,102076.60
2023-02-14T14:41:05.838Z,102078.80
2023-02-14T14:46:13.325Z,102078.40
2023-02-14T14:51:36.018Z,102081.40
2023-02-14T14:56:53.078Z,102081.00
2023-02-14T15:01:56.602Z,102078.20
2023-02-14T15:07:36.817Z,102082.00
2023-02-14T15:12:58.535Z,102091.80
2023-02-14T15:18:07.300Z,102088.40
2023-02-14T15:23:20.822Z,102084.20
2023-02-14T15:28:35.854Z,102085.60
2023-02-14T15:33:39.822Z,102079.00
2023-02-14T15:38:43.664Z,102074.60
2023-02-14T15:44:07.545Z,102080.60
2023-02-14T15:49:17.553Z,102077.20
2023-02-14T15:54:33.512Z,102080.00
2023-02-14T15:59:43.088Z,102085.60
2023-02-14T16:04:46.719Z,102084.60
2023-02-14T16:09:53.921Z,102088.40
2023-02-14T16:15:23.880Z,102106.00
2023-02-14T16:20:40.122Z,102107.80
2023-02-14T16:25:43.144Z,102109.60
2023-02-14T16:30:52.718Z,102113.60
2023-02-14T16:36:08.357Z,102118.20
2023-02-14T16:41:23.102Z,102123.80
2023-02-14T16:46:31.964Z,102126.80
2023-02-14T16:51:43.670Z,102124.40
2023-02-14T16:57:18.866Z,102114.60
2023-02-14T17:02:24.494Z,102119.00
2023-02-14T17:07:32.328Z,102122.80
2023-02-14T17:12:40.627Z,102121.20
2023-02-14T17:17:47.292Z,102114.60
2023-02-14T17:22:50.799Z,102113.40
2023-02-14T17:27:54.002Z,102114.40
2023-02-14T17:32:57.029Z,102110.60
2023-02-14T17:38:00.025Z,102115.80
2023-02-14T17:43:03.133Z,102120.80
2023-02-14T17:48:06.761Z,102119.00
2023-02-14T17:53:11.046Z,102125.60
2023-02-14T17:58:14.074Z,102128.40
2023-02-14T18:03:17.310Z,102127.60
2023-02-14T18:08:21.420Z,102129.40
2023-02-14T18:13:25.907Z,102134.00
2023-02-14T18:18:28.905Z,102132.60
2023-02-14T18:23:33.142Z,102137.60
2023-02-14T18:28:37.024Z,102137.20
2023-02-14T18:33:41.177Z,102138.60
2023-02-14T18:38:46.757Z,102138.20
2023-02-14T18:43:50.761Z,102136.20
2023-02-14T18:48:56.655Z,102139.20
2023-02-14T18:54:02.323Z,102133.60
2023-02-14T18:59:10.120Z,102132.60
2023-02-14T19:04:13.799Z,102128.20
2023-02-14T19:09:17.684Z,102130.20
2023-02-14T19:14:20.606Z,102130.20
2023-02-14T19:19:24.158Z,102124.20
2023-02-14T19:24:27.823Z,102122.20
2023-02-14T19:29:31.124Z,102112.00
2023-02-14T19:34:35.094Z,102106.20
2023-02-14T19:39:38.339Z,102108.80
2023-02-14T19:44:41.554Z,102105.80
2023-02-14T19:49:44.624Z,102115.40
2023-02-14T19:54:47.741Z,102121.80
2023-02-14T19:59:50.890Z,102115.40
2023-02-14T20:04:59.000Z,102112.80
2023-02-14T20:10:01.988Z,102114.00
2023-02-14T20:15:08.212Z,102109.00
2023-02-14T20:20:13.920Z,102116.20
2023-02-14T20:25:17.108Z,102113.40
2023-02-14T20:30:20.928Z,102111.20
2023-02-14T20:35:24.156Z,102119.80
2023-02-14T20:40:27.369Z,102119.40
2023-02-14T20:45:31.144Z,102120.80
2023-02-14T20:50:34.419Z,102111.00
2023-02-14T20:55:44.791Z,102110.00
2023-02-14T21:00:49.126Z,102114.20
2023-02-14T21:05:52.169Z,102107.40
2023-02-14T21:10:55.121Z,102104.20
2023-02-14T21:16:18.390Z,102109.00
2023-02-14T21:21:30.030Z,102107.00
2023-02-14T21:26:33.256Z,102108.80
2023-02-14T21:31:36.905Z,102107.60
2023-02-14T21:36:40.174Z,102110.60
2023-02-14T21:41:43.453Z,102111.60
2023-02-14T21:46:47.133Z,102105.60
2023-02-14T21:51:50.292Z,102095.00
2023-02-14T21:56:53.452Z,102098.40
2023-02-14T22:01:56.565Z,102094.60
2023-02-14T22:06:59.502Z,102087.40
2023-02-14T22:12:02.472Z,102090.80
2023-02-14T22:17:05.494Z,102088.40
2023-02-14T22:22:10.154Z,102084.80
2023-02-14T22:27:16.990Z,102085.60
2023-02-14T22:32:23.634Z,102085.80
2023-02-14T22:37:26.717Z,102085.60
2023-02-14T22:42:29.933Z,102088.80
2023-02-14T22:47:33.193Z,102081.40
2023-02-14T22:52:36.131Z,102077.60
2023-02-14T22:57:39.079Z,102084.20
2023-02-14T23:02:42.252Z,102081.80
2023-02-14T23:07:45.270Z,102086.00
2023-02-14T23:13:07.214Z,102084.60
2023-02-14T23:18:32.000Z,102093.80
2023-02-14T23:23:34.863Z,102091.80
2023-02-14T23:28:37.938Z,102092.60
2023-02-14T23:33:40.893Z,102092.20
2023-02-14T23:38:43.789Z,102097.40
2023-02-14T23:43:48.947Z,102086.40
2023-02-14T23:48:51.931Z,102075.80
2023-02-14T23:53:55.207Z,102078.20
2023-02-14T23:58:58.169Z,102069.80
